sensor_id;sensor_type;location;lat;lon;timestamp;temperature;humidity
5118;DHT22;2578;51.622;7.046;2023-02-10T00:00:42;4.20;99.90
5118;DHT22;2578;51.622;7.046;2023-02-10T00:03:07;4.30;99.90
5118;DHT22;2578;51.622;7.046;2023-02-10T00:05:33;4.30;99.90
5118;DHT22;2578;51.622;7.046;2023-02-10T00:07:58;4.40;99.90
5118;DHT22;2578;51.622;7.046;2023-02-10T00:10:24;4.30;99.90
5118;DHT22;2578;51.622;7.046;2023-02-10T00:12:49;4.30;99.90
5118;DHT22;2578;51.622;7.046;2023-02-10T00:15:15;4.30;99.90
5118;DHT22;2578;51.622;7.046;2023-02-10T00:17:41;4.30;99.90
5118;DHT22;2578;51.622;7.046;2023-02-10T00:20:07;4.20;99.90
5118;DHT22;2578;51.622;7.046;2023-02-10T00:22:33;4.20;99.90
5118;DHT22;2578;51.622;7.046;2023-02-10T00:24:59;4.20;99.90
5118;DHT22;2578;51.622;7.046;2023-02-10T00:27:25;4.20;99.90
5118;DHT22;2578;51.622;7.046;2023-02-10T00:29:50;4.10;99.90
5118;DHT22;2578;51.622;7.046;2023-02-10T00:32:17;4.00;99.90
5118;DHT22;2578;51.622;7.046;2023-02-10T00:34:44;4.00;99.90
5118;DHT22;2578;51.622;7.046;2023-02-10T00:37:09;3.90;99.90
5118;DHT22;2578;51.622;7.046;2023-02-10T00:39:35;3.80;99.90
5118;DHT22;2578;51.622;7.046;2023-02-10T00:42:01;3.80;99.90
5118;DHT22;2578;51.622;7.046;2023-02-10T00:44:26;3.90;99.90
5118;DHT22;2578;51.622;7.046;2023-02-10T00:46:52;3.90;99.90
5118;DHT22;2578;51.622;7.046;2023-02-10T00:49:17;3.90;99.90
5118;DHT22;2578;51.622;7.046;2023-02-10T00:51:43;3.90;99.90
5118;DHT22;2578;51.622;7.046;2023-02-10T00:54:11;4.00;99.90
5118;DHT22;2578;51.622;7.046;2023-02-10T00:56:38;3.90;99.90
5118;DHT22;2578;51.622;7.046;2023-02-10T00:59:04;3.90;99.90
5118;DHT22;2578;51.622;7.046;2023-02-10T01:01:29;3.80;99.90
5118;DHT22;2578;51.622;7.046;2023-02-10T01:03:55;3.70;99.90
5118;DHT22;2578;51.622;7.046;2023-02-10T01:06:21;3.60;99.90
5118;DHT22;2578;51.622;7.046;2023-02-10T01:08:46;3.40;99.90
5118;DHT22;2578;51.622;7.046;2023-02-10T01:11:13;3.40;99.90
5118;DHT22;2578;51.622;7.046;2023-02-10T01:13:39;3.30;99.90
5118;DHT22;2578;51.622;7.046;2023-02-10T01:16:07;3.20;99.90
5118;DHT22;2578;51.622;7.046;2023-02-10T01:18:35;2.80;99.90
5118;DHT22;2578;51.622;7.046;2023-02-10T01:21:06;2.80;99.90
5118;DHT22;2578;51.622;7.046;2023-02-10T01:23:32;2.90;99.90
5118;DHT22;2578;51.622;7.046;2023-02-10T01:25:59;2.90;99.90
5118;DHT22;2578;51.622;7.046;2023-02-10T01:28:25;2.90;99.90
5118;DHT22;2578;51.622;7.046;2023-02-10T01:30:50;2.90;99.90
5118;DHT22;2578;51.622;7.046;2023-02-10T01:33:16;3.00;99.90
5118;DHT22;2578;51.622;7.046;2023-02-10T01:35:41;3.10;99.90
5118;DHT22;2578;51.622;7.046;2023-02-10T01:38:07;3.20;99.90
5118;DHT22;2578;51.622;7.046;2023-02-10T01:40:32;3.30;99.90
5118;DHT22;2578;51.622;7.046;2023-02-10T01:42:58;3.30;99.90
5118;DHT22;2578;51.622;7.046;2023-02-10T01:47:59;3.40;99.90
5118;DHT22;2578;51.622;7.046;2023-02-10T01:50:30;3.40;99.90
5118;DHT22;2578;51.622;7.046;2023-02-10T01:52:58;3.40;99.90
5118;DHT22;2578;51.622;7.046;2023-02-10T01:55:31;3.40;99.90
5118;DHT22;2578;51.622;7.046;2023-02-10T02:00:26;3.30;99.90
5118;DHT22;2578;51.622;7.046;2023-02-10T02:02:52;3.30;99.90
5118;DHT22;2578;51.622;7.046;2023-02-10T02:10:47;4.30;99.90
5118;DHT22;2578;51.622;7.046;2023-02-10T02:19:43;3.20;99.90
5118;DHT22;2578;51.622;7.046;2023-02-10T02:22:45;3.20;99.90
5118;DHT22;2578;51.622;7.046;2023-02-10T02:25:26;3.10;99.90
5118;DHT22;2578;51.622;7.046;2023-02-10T02:33:32;3.00;99.90
5118;DHT22;2578;51.622;7.046;2023-02-10T02:36:12;2.90;99.90
5118;DHT22;2578;51.622;7.046;2023-02-10T02:38:40;2.90;99.90
5118;DHT22;2578;51.622;7.046;2023-02-10T02:41:07;2.90;99.90
5118;DHT22;2578;51.622;7.046;2023-02-10T02:43:33;3.00;99.90
5118;DHT22;2578;51.622;7.046;2023-02-10T02:46:12;3.00;99.90
5118;DHT22;2578;51.622;7.046;2023-02-10T02:51:39;3.00;99.90
5118;DHT22;2578;51.622;7.046;2023-02-10T02:54:21;3.10;99.90
5118;DHT22;2578;51.622;7.046;2023-02-10T02:57:11;3.10;99.90
5118;DHT22;2578;51.622;7.046;2023-02-10T02:59:46;1.40;99.90
5118;DHT22;2578;51.622;7.046;2023-02-10T03:02:15;3.10;99.90
5118;DHT22;2578;51.622;7.046;2023-02-10T03:04:45;3.10;99.90
5118;DHT22;2578;51.622;7.046;2023-02-10T03:07:11;3.20;99.90
5118;DHT22;2578;51.622;7.046;2023-02-10T03:09:37;3.20;99.90
5118;DHT22;2578;51.622;7.046;2023-02-10T03:12:03;3.20;99.90
5118;DHT22;2578;51.622;7.046;2023-02-10T03:14:29;3.20;99.90
5118;DHT22;2578;51.622;7.046;2023-02-10T03:16:54;3.20;99.90
5118;DHT22;2578;51.622;7.046;2023-02-10T03:19:20;3.20;99.90
5118;DHT22;2578;51.622;7.046;2023-02-10T03:21:46;3.20;99.90
5118;DHT22;2578;51.622;7.046;2023-02-10T03:24:13;3.30;99.90
5118;DHT22;2578;51.622;7.046;2023-02-10T03:26:39;3.30;99.90
5118;DHT22;2578;51.622;7.046;2023-02-10T03:29:06;3.20;99.90
5118;DHT22;2578;51.622;7.046;2023-02-10T03:31:32;3.30;99.90
5118;DHT22;2578;51.622;7.046;2023-02-10T03:33:58;3.30;99.90
5118;DHT22;2578;51.622;7.046;2023-02-10T03:36:23;3.30;99.90
5118;DHT22;2578;51.622;7.046;2023-02-10T03:38:49;3.30;99.90
5118;DHT22;2578;51.622;7.046;2023-02-10T03:41:14;3.30;99.90
5118;DHT22;2578;51.622;7.046;2023-02-10T03:43:40;3.20;99.90
5118;DHT22;2578;51.622;7.046;2023-02-10T03:46:08;3.10;99.90
5118;DHT22;2578;51.622;7.046;2023-02-10T03:48:34;3.10;99.90
5118;DHT22;2578;51.622;7.046;2023-02-10T03:51:01;3.00;99.90
5118;DHT22;2578;51.622;7.046;2023-02-10T03:53:29;3.10;99.90
5118;DHT22;2578;51.622;7.046;2023-02-10T03:55:55;3.00;99.90
5118;DHT22;2578;51.622;7.046;2023-02-10T03:58:21;3.10;99.90
5118;DHT22;2578;51.622;7.046;2023-02-10T04:00:47;3.00;99.90
5118;DHT22;2578;51.622;7.046;2023-02-10T04:03:13;3.00;99.90
5118;DHT22;2578;51.622;7.046;2023-02-10T04:05:38;2.90;99.90
5118;DHT22;2578;51.622;7.046;2023-02-10T04:08:04;2.80;99.90
5118;DHT22;2578;51.622;7.046;2023-02-10T04:10:30;2.80;99.90
5118;DHT22;2578;51.622;7.046;2023-02-10T04:12:56;2.80;99.90
5118;DHT22;2578;51.622;7.046;2023-02-10T04:15:22;2.70;99.90
5118;DHT22;2578;51.622;7.046;2023-02-10T04:17:47;2.70;99.90
5118;DHT22;2578;51.622;7.046;2023-02-10T04:20:13;2.60;99.90
5118;DHT22;2578;51.622;7.046;2023-02-10T04:22:39;2.60;99.90
5118;DHT22;2578;51.622;7.046;2023-02-10T04:25:05;2.50;99.90
5118;DHT22;2578;51.622;7.046;2023-02-10T04:27:31;2.50;99.90
5118;DHT22;2578;51.622;7.046;2023-02-10T04:29:57;2.40;99.90
5118;DHT22;2578;51.622;7.046;2023-02-10T04:32:22;2.40;99.90
5118;DHT22;2578;51.622;7.046;2023-02-10T04:34:48;2.40;99.90
5118;DHT22;2578;51.622;7.046;2023-02-10T04:37:14;2.40;99.90
5118;DHT22;2578;51.622;7.046;2023-02-10T04:39:39;2.30;99.90
5118;DHT22;2578;51.622;7.046;2023-02-10T04:42:05;2.30;99.90
5118;DHT22;2578;51.622;7.046;2023-02-10T04:44:31;2.40;99.90
5118;DHT22;2578;51.622;7.046;2023-02-10T04:46:56;2.50;99.90
5118;DHT22;2578;51.622;7.046;2023-02-10T04:49:22;2.40;99.90
5118;DHT22;2578;51.622;7.046;2023-02-10T04:51:48;2.40;99.90
5118;DHT22;2578;51.622;7.046;2023-02-10T04:54:14;2.40;99.90
5118;DHT22;2578;51.622;7.046;2023-02-10T04:56:39;2.50;99.90
5118;DHT22;2578;51.622;7.046;2023-02-10T04:59:05;2.40;99.90
5118;DHT22;2578;51.622;7.046;2023-02-10T05:01:31;2.40;99.90
5118;DHT22;2578;51.622;7.046;2023-02-10T05:03:56;2.40;99.90
5118;DHT22;2578;51.622;7.046;2023-02-10T05:06:22;2.30;99.90
5118;DHT22;2578;51.622;7.046;2023-02-10T05:08:47;2.40;99.90
5118;DHT22;2578;51.622;7.046;2023-02-10T05:11:15;2.40;99.90
5118;DHT22;2578;51.622;7.046;2023-02-10T05:13:41;2.40;99.90
5118;DHT22;2578;51.622;7.046;2023-02-10T05:16:08;2.40;99.90
5118;DHT22;2578;51.622;7.046;2023-02-10T05:18:34;2.30;99.90
5118;DHT22;2578;51.622;7.046;2023-02-10T05:21:01;2.30;99.90
5118;DHT22;2578;51.622;7.046;2023-02-10T05:23:28;2.30;99.90
5118;DHT22;2578;51.622;7.046;2023-02-10T05:25:54;2.30;99.90
5118;DHT22;2578;51.622;7.046;2023-02-10T05:28:19;2.30;99.90
5118;DHT22;2578;51.622;7.046;2023-02-10T05:30:46;2.30;99.90
5118;DHT22;2578;51.622;7.046;2023-02-10T05:33:12;2.30;99.90
5118;DHT22;2578;51.622;7.046;2023-02-10T05:35:38;2.30;99.90
5118;DHT22;2578;51.622;7.046;2023-02-10T05:38:03;2.30;99.90
5118;DHT22;2578;51.622;7.046;2023-02-10T05:40:29;2.30;99.90
5118;DHT22;2578;51.622;7.046;2023-02-10T05:42:55;2.30;99.90
5118;DHT22;2578;51.622;7.046;2023-02-10T05:45:21;2.30;99.90
5118;DHT22;2578;51.622;7.046;2023-02-10T05:47:47;2.30;99.90
5118;DHT22;2578;51.622;7.046;2023-02-10T05:50:12;2.30;99.90
5118;DHT22;2578;51.622;7.046;2023-02-10T05:52:38;2.40;99.90
5118;DHT22;2578;51.622;7.046;2023-02-10T05:55:04;2.50;99.90
5118;DHT22;2578;51.622;7.046;2023-02-10T05:57:30;2.50;99.90
5118;DHT22;2578;51.622;7.046;2023-02-10T05:59:55;2.60;99.90
5118;DHT22;2578;51.622;7.046;2023-02-10T06:02:21;2.60;99.90
5118;DHT22;2578;51.622;7.046;2023-02-10T06:04:47;2.70;99.90
5118;DHT22;2578;51.622;7.046;2023-02-10T06:07:12;2.70;99.90
5118;DHT22;2578;51.622;7.046;2023-02-10T06:09:38;2.80;99.90
5118;DHT22;2578;51.622;7.046;2023-02-10T06:12:05;2.80;99.90
5118;DHT22;2578;51.622;7.046;2023-02-10T06:14:31;2.80;99.90
5118;DHT22;2578;51.622;7.046;2023-02-10T06:16:57;2.90;99.90
5118;DHT22;2578;51.622;7.046;2023-02-10T06:19:22;2.90;99.90
5118;DHT22;2578;51.622;7.046;2023-02-10T06:21:48;2.90;99.90
5118;DHT22;2578;51.622;7.046;2023-02-10T06:24:14;2.80;99.90
5118;DHT22;2578;51.622;7.046;2023-02-10T06:26:39;2.80;99.90
5118;DHT22;2578;51.622;7.046;2023-02-10T06:29:05;2.80;99.90
5118;DHT22;2578;51.622;7.046;2023-02-10T06:31:31;2.80;99.90
5118;DHT22;2578;51.622;7.046;2023-02-10T06:33:56;2.80;99.90
5118;DHT22;2578;51.622;7.046;2023-02-10T06:36:22;2.80;99.90
5118;DHT22;2578;51.622;7.046;2023-02-10T06:38:47;2.80;99.90
5118;DHT22;2578;51.622;7.046;2023-02-10T06:41:13;2.80;99.90
5118;DHT22;2578;51.622;7.046;2023-02-10T06:43:39;2.80;99.90
5118;DHT22;2578;51.622;7.046;2023-02-10T06:46:05;2.80;99.90
5118;DHT22;2578;51.622;7.046;2023-02-10T06:48:31;2.80;99.90
5118;DHT22;2578;51.622;7.046;2023-02-10T06:50:56;2.80;99.90
5118;DHT22;2578;51.622;7.046;2023-02-10T06:53:22;2.80;99.90
5118;DHT22;2578;51.622;7.046;2023-02-10T06:55:47;2.80;99.90
5118;DHT22;2578;51.622;7.046;2023-02-10T06:58:14;2.80;99.90
5118;DHT22;2578;51.622;7.046;2023-02-10T07:00:39;2.80;99.90
5118;DHT22;2578;51.622;7.046;2023-02-10T07:03:05;2.80;99.90
5118;DHT22;2578;51.622;7.046;2023-02-10T07:05:31;2.80;99.90
5118;DHT22;2578;51.622;7.046;2023-02-10T07:07:57;1.00;99.90
5118;DHT22;2578;51.622;7.046;2023-02-10T07:10:25;2.80;99.90
5118;DHT22;2578;51.622;7.046;2023-02-10T07:12:50;2.80;99.90
5118;DHT22;2578;51.622;7.046;2023-02-10T07:15:17;2.90;99.90
5118;DHT22;2578;51.622;7.046;2023-02-10T07:17:46;2.90;99.90
5118;DHT22;2578;51.622;7.046;2023-02-10T07:20:12;2.90;99.90
5118;DHT22;2578;51.622;7.046;2023-02-10T07:22:37;2.90;99.90
5118;DHT22;2578;51.622;7.046;2023-02-10T07:25:03;3.00;99.90
5118;DHT22;2578;51.622;7.046;2023-02-10T07:27:29;3.00;99.90
5118;DHT22;2578;51.622;7.046;2023-02-10T07:29:55;2.90;99.90
5118;DHT22;2578;51.622;7.046;2023-02-10T07:32:20;3.00;99.90
5118;DHT22;2578;51.622;7.046;2023-02-10T07:34:46;2.90;99.90
5118;DHT22;2578;51.622;7.046;2023-02-10T07:37:14;2.90;99.90
5118;DHT22;2578;51.622;7.046;2023-02-10T07:39:40;2.90;99.90
5118;DHT22;2578;51.622;7.046;2023-02-10T07:42:06;2.90;99.90
5118;DHT22;2578;51.622;7.046;2023-02-10T07:44:31;3.00;99.90
5118;DHT22;2578;51.622;7.046;2023-02-10T07:46:57;3.10;99.90
5118;DHT22;2578;51.622;7.046;2023-02-10T07:49:23;3.10;99.90
5118;DHT22;2578;51.622;7.046;2023-02-10T07:51:49;3.20;99.90
5118;DHT22;2578;51.622;7.046;2023-02-10T07:54:15;3.20;99.90
5118;DHT22;2578;51.622;7.046;2023-02-10T07:56:41;3.40;99.90
5118;DHT22;2578;51.622;7.046;2023-02-10T07:59:06;3.50;99.90
5118;DHT22;2578;51.622;7.046;2023-02-10T08:01:32;3.60;99.90
5118;DHT22;2578;51.622;7.046;2023-02-10T08:03:58;3.70;99.90
5118;DHT22;2578;51.622;7.046;2023-02-10T08:06:25;3.70;99.90
5118;DHT22;2578;51.622;7.046;2023-02-10T08:08:51;3.70;99.90
5118;DHT22;2578;51.622;7.046;2023-02-10T08:11:17;3.80;99.90
5118;DHT22;2578;51.622;7.046;2023-02-10T08:13:43;3.90;99.90
5118;DHT22;2578;51.622;7.046;2023-02-10T08:16:09;4.10;99.90
5118;DHT22;2578;51.622;7.046;2023-02-10T08:18:37;4.20;99.90
5118;DHT22;2578;51.622;7.046;2023-02-10T08:21:03;4.20;99.90
5118;DHT22;2578;51.622;7.046;2023-02-10T08:23:30;4.10;99.90
5118;DHT22;2578;51.622;7.046;2023-02-10T08:25:56;4.10;99.90
5118;DHT22;2578;51.622;7.046;2023-02-10T08:28:22;4.20;99.90
5118;DHT22;2578;51.622;7.046;2023-02-10T08:30:47;4.30;99.90
5118;DHT22;2578;51.622;7.046;2023-02-10T08:33:13;4.40;99.90
5118;DHT22;2578;51.622;7.046;2023-02-10T08:35:40;4.40;99.90
5118;DHT22;2578;51.622;7.046;2023-02-10T08:38:06;4.80;99.90
5118;DHT22;2578;51.622;7.046;2023-02-10T08:40:34;4.80;99.90
5118;DHT22;2578;51.622;7.046;2023-02-10T08:42:59;4.90;99.90
5118;DHT22;2578;51.622;7.046;2023-02-10T08:45:25;4.80;99.90
5118;DHT22;2578;51.622;7.046;2023-02-10T08:47:50;4.70;99.90
5118;DHT22;2578;51.622;7.046;2023-02-10T08:50:16;4.80;99.90
5118;DHT22;2578;51.622;7.046;2023-02-10T08:52:42;4.80;99.90
5118;DHT22;2578;51.622;7.046;2023-02-10T08:55:08;5.10;99.90
5118;DHT22;2578;51.622;7.046;2023-02-10T08:57:36;5.10;99.90
5118;DHT22;2578;51.622;7.046;2023-02-10T09:00:04;5.30;99.90
5118;DHT22;2578;51.622;7.046;2023-02-10T09:02:30;5.40;99.90
5118;DHT22;2578;51.622;7.046;2023-02-10T09:04:55;5.40;99.90
5118;DHT22;2578;51.622;7.046;2023-02-10T09:07:21;5.40;99.90
5118;DHT22;2578;51.622;7.046;2023-02-10T09:09:47;5.70;99.90
5118;DHT22;2578;51.622;7.046;2023-02-10T09:12:12;5.90;99.90
5118;DHT22;2578;51.622;7.046;2023-02-10T09:14:38;6.10;99.90
5118;DHT22;2578;51.622;7.046;2023-02-10T09:17:05;6.20;99.90
5118;DHT22;2578;51.622;7.046;2023-02-10T09:19:36;6.60;99.90
5118;DHT22;2578;51.622;7.046;2023-02-10T09:22:03;6.50;99.90
5118;DHT22;2578;51.622;7.046;2023-02-10T09:24:29;6.70;99.90
5118;DHT22;2578;51.622;7.046;2023-02-10T09:26:54;6.70;99.90
5118;DHT22;2578;51.622;7.046;2023-02-10T09:29:20;6.70;99.90
5118;DHT22;2578;51.622;7.046;2023-02-10T09:31:46;6.60;99.90
5118;DHT22;2578;51.622;7.046;2023-02-10T09:34:11;8.00;99.90
5118;DHT22;2578;51.622;7.046;2023-02-10T09:36:37;6.40;99.90
5118;DHT22;2578;51.622;7.046;2023-02-10T09:39:03;6.80;99.90
5118;DHT22;2578;51.622;7.046;2023-02-10T09:44:23;7.20;99.90
5118;DHT22;2578;51.622;7.046;2023-02-10T09:50:36;7.80;99.90
5118;DHT22;2578;51.622;7.046;2023-02-10T09:53:19;8.10;99.90
5118;DHT22;2578;51.622;7.046;2023-02-10T09:55:48;8.30;99.90
5118;DHT22;2578;51.622;7.046;2023-02-10T10:00:55;8.60;99.90
5118;DHT22;2578;51.622;7.046;2023-02-10T10:03:28;8.80;99.90
5118;DHT22;2578;51.622;7.046;2023-02-10T10:14:05;9.30;99.90
5118;DHT22;2578;51.622;7.046;2023-02-10T10:19:10;9.70;99.90
5118;DHT22;2578;51.622;7.046;2023-02-10T10:30:48;10.00;99.90
5118;DHT22;2578;51.622;7.046;2023-02-10T10:33:51;10.50;99.90
5118;DHT22;2578;51.622;7.046;2023-02-10T10:36:20;10.30;99.90
5118;DHT22;2578;51.622;7.046;2023-02-10T10:38:51;9.70;99.90
5118;DHT22;2578;51.622;7.046;2023-02-10T10:41:16;9.50;99.90
5118;DHT22;2578;51.622;7.046;2023-02-10T10:43:52;9.50;99.90
5118;DHT22;2578;51.622;7.046;2023-02-10T10:49:02;10.00;99.90
5118;DHT22;2578;51.622;7.046;2023-02-10T10:51:28;9.70;99.90
5118;DHT22;2578;51.622;7.046;2023-02-10T10:53:57;10.30;99.90
5118;DHT22;2578;51.622;7.046;2023-02-10T10:56:51;10.60;99.90
5118;DHT22;2578;51.622;7.046;2023-02-10T10:59:20;9.70;99.90
5118;DHT22;2578;51.622;7.046;2023-02-10T11:01:47;9.20;99.90
5118;DHT22;2578;51.622;7.046;2023-02-10T11:06:46;8.50;99.90
5118;DHT22;2578;51.622;7.046;2023-02-10T11:09:33;8.80;99.90
5118;DHT22;2578;51.622;7.046;2023-02-10T11:15:30;9.20;99.90
5118;DHT22;2578;51.622;7.046;2023-02-10T11:17:53;9.30;99.90
5118;DHT22;2578;51.622;7.046;2023-02-10T11:20:32;9.40;99.90
5118;DHT22;2578;51.622;7.046;2023-02-10T11:23:11;9.50;99.90
5118;DHT22;2578;51.622;7.046;2023-02-10T11:25:37;9.50;99.90
5118;DHT22;2578;51.622;7.046;2023-02-10T11:28:06;10.00;99.90
5118;DHT22;2578;51.622;7.046;2023-02-10T11:30:38;10.10;99.90
5118;DHT22;2578;51.622;7.046;2023-02-10T11:33:06;10.40;99.90
5118;DHT22;2578;51.622;7.046;2023-02-10T11:35:48;10.50;99.90
5118;DHT22;2578;51.622;7.046;2023-02-10T11:38:20;10.40;99.90
5118;DHT22;2578;51.622;7.046;2023-02-10T11:40:52;10.40;99.90
5118;DHT22;2578;51.622;7.046;2023-02-10T11:43:20;10.70;99.70
5118;DHT22;2578;51.622;7.046;2023-02-10T11:46:22;10.60;99.90
5118;DHT22;2578;51.622;7.046;2023-02-10T11:51:18;9.80;99.90
5118;DHT22;2578;51.622;7.046;2023-02-10T11:53:45;9.80;99.90
5118;DHT22;2578;51.622;7.046;2023-02-10T11:56:37;9.80;99.90
5118;DHT22;2578;51.622;7.046;2023-02-10T12:02:01;10.10;99.90
5118;DHT22;2578;51.622;7.046;2023-02-10T12:04:54;10.20;99.90
5118;DHT22;2578;51.622;7.046;2023-02-10T12:13:09;9.60;99.90
5118;DHT22;2578;51.622;7.046;2023-02-10T12:26:07;10.60;94.80
5118;DHT22;2578;51.622;7.046;2023-02-10T12:37:20;10.50;93.60
5118;DHT22;2578;51.622;7.046;2023-02-10T12:53:23;10.60;92.90
5118;DHT22;2578;51.622;7.046;2023-02-10T12:58:36;8.90;99.90
5118;DHT22;2578;51.622;7.046;2023-02-10T13:03:49;8.30;99.90
5118;DHT22;2578;51.622;7.046;2023-02-10T13:06:32;7.70;99.90
5118;DHT22;2578;51.622;7.046;2023-02-10T13:14:49;7.60;99.90
5118;DHT22;2578;51.622;7.046;2023-02-10T13:17:16;8.00;99.90
5118;DHT22;2578;51.622;7.046;2023-02-10T13:19:58;8.60;99.90
5118;DHT22;2578;51.622;7.046;2023-02-10T13:22:53;8.60;94.10
5118;DHT22;2578;51.622;7.046;2023-02-10T13:29:20;9.40;79.90
5118;DHT22;2578;51.622;7.046;2023-02-10T13:31:15;9.40;70.90
5118;DHT22;2578;51.622;7.046;2023-02-10T13:36:27;9.60;67.90
5118;DHT22;2578;51.622;7.046;2023-02-10T13:39:21;10.00;58.80
5118;DHT22;2578;51.622;7.046;2023-02-10T13:41:50;10.00;54.40
5118;DHT22;2578;51.622;7.046;2023-02-10T13:44:24;10.20;31.50
5118;DHT22;2578;51.622;7.046;2023-02-10T13:47:12;10.50;35.10
5118;DHT22;2578;51.622;7.046;2023-02-10T13:52:24;10.10;12.20
5118;DHT22;2578;51.622;7.046;2023-02-10T13:56:01;10.40;8.50
5118;DHT22;2578;51.622;7.046;2023-02-10T13:58:13;10.40;9.90
5118;DHT22;2578;51.622;7.046;2023-02-10T14:05:50;10.60;16.10
5118;DHT22;2578;51.622;7.046;2023-02-10T14:11:05;9.90;18.30
5118;DHT22;2578;51.622;7.046;2023-02-10T14:13:34;10.10;21.00
5118;DHT22;2578;51.622;7.046;2023-02-10T14:18:44;9.70;48.10
5118;DHT22;2578;51.622;7.046;2023-02-10T14:21:15;9.70;35.70
5118;DHT22;2578;51.622;7.046;2023-02-10T14:23:50;10.20;46.40
5118;DHT22;2578;51.622;7.046;2023-02-10T14:26:34;10.40;27.50
5118;DHT22;2578;51.622;7.046;2023-02-10T14:29:01;9.30;49.60
5118;DHT22;2578;51.622;7.046;2023-02-10T14:31:30;9.30;71.10
5118;DHT22;2578;51.622;7.046;2023-02-10T14:34:01;9.10;88.70
5118;DHT22;2578;51.622;7.046;2023-02-10T14:36:27;9.60;74.90
5118;DHT22;2578;51.622;7.046;2023-02-10T14:39:01;9.60;59.70
5118;DHT22;2578;51.622;7.046;2023-02-10T14:41:29;9.70;56.20
5118;DHT22;2578;51.622;7.046;2023-02-10T14:43:56;10.00;60.60
5118;DHT22;2578;51.622;7.046;2023-02-10T14:46:24;9.80;53.70
5118;DHT22;2578;51.622;7.046;2023-02-10T14:49:03;11.30;64.90
5118;DHT22;2578;51.622;7.046;2023-02-10T14:51:37;10.20;67.70
5118;DHT22;2578;51.622;7.046;2023-02-10T14:54:17;10.30;61.20
5118;DHT22;2578;51.622;7.046;2023-02-10T14:56:56;10.20;61.50
5118;DHT22;2578;51.622;7.046;2023-02-10T14:59:27;9.00;79.80
5118;DHT22;2578;51.622;7.046;2023-02-10T15:01:55;8.60;90.10
5118;DHT22;2578;51.622;7.046;2023-02-10T15:04:21;8.50;99.90
5118;DHT22;2578;51.622;7.046;2023-02-10T15:06:52;8.70;99.90
5118;DHT22;2578;51.622;7.046;2023-02-10T15:09:22;8.40;99.90
5118;DHT22;2578;51.622;7.046;2023-02-10T15:12:02;8.10;99.90
5118;DHT22;2578;51.622;7.046;2023-02-10T15:17:15;7.90;99.90
5118;DHT22;2578;51.622;7.046;2023-02-10T15:22:45;8.10;99.90
5118;DHT22;2578;51.622;7.046;2023-02-10T15:36:28;7.80;99.90
5118;DHT22;2578;51.622;7.046;2023-02-10T15:38:58;7.70;99.90
5118;DHT22;2578;51.622;7.046;2023-02-10T15:41:41;7.70;99.90
5118;DHT22;2578;51.622;7.046;2023-02-10T15:46:44;7.90;99.90
5118;DHT22;2578;51.622;7.046;2023-02-10T15:49:14;7.80;99.90
5118;DHT22;2578;51.622;7.046;2023-02-10T15:51:49;7.80;99.90
5118;DHT22;2578;51.622;7.046;2023-02-10T15:54:17;7.60;99.90
5118;DHT22;2578;51.622;7.046;2023-02-10T15:59:19;7.20;99.90
5118;DHT22;2578;51.622;7.046;2023-02-10T16:01:45;7.10;99.90
5118;DHT22;2578;51.622;7.046;2023-02-10T16:04:10;7.00;99.90
5118;DHT22;2578;51.622;7.046;2023-02-10T16:06:37;6.90;99.90
5118;DHT22;2578;51.622;7.046;2023-02-10T16:09:03;6.80;99.90
5118;DHT22;2578;51.622;7.046;2023-02-10T16:11:29;6.80;99.90
5118;DHT22;2578;51.622;7.046;2023-02-10T16:13:55;6.70;99.90
5118;DHT22;2578;51.622;7.046;2023-02-10T16:16:20;6.80;99.90
5118;DHT22;2578;51.622;7.046;2023-02-10T16:18:46;6.70;99.90
5118;DHT22;2578;51.622;7.046;2023-02-10T16:21:13;6.70;99.90
5118;DHT22;2578;51.622;7.046;2023-02-10T16:23:41;6.60;99.90
5118;DHT22;2578;51.622;7.046;2023-02-10T16:26:08;6.50;99.90
5118;DHT22;2578;51.622;7.046;2023-02-10T16:28:36;6.50;99.90
5118;DHT22;2578;51.622;7.046;2023-02-10T16:31:01;6.60;99.90
5118;DHT22;2578;51.622;7.046;2023-02-10T16:33:27;6.50;99.90
5118;DHT22;2578;51.622;7.046;2023-02-10T16:35:52;6.50;99.90
5118;DHT22;2578;51.622;7.046;2023-02-10T16:38:18;6.60;99.90
5118;DHT22;2578;51.622;7.046;2023-02-10T16:40:44;6.60;99.90
5118;DHT22;2578;51.622;7.046;2023-02-10T16:43:10;6.60;99.90
5118;DHT22;2578;51.622;7.046;2023-02-10T16:45:35;6.50;99.90
5118;DHT22;2578;51.622;7.046;2023-02-10T16:50:37;6.50;72.30
5118;DHT22;2578;51.622;7.046;2023-02-10T16:53:04;6.50;99.90
5118;DHT22;2578;51.622;7.046;2023-02-10T16:57:57;6.20;10.50
5118;DHT22;2578;51.622;7.046;2023-02-10T17:00:23;6.30;10.30
5118;DHT22;2578;51.622;7.046;2023-02-10T17:02:49;6.40;20.10
5118;DHT22;2578;51.622;7.046;2023-02-10T17:05:15;6.50;20.60
5118;DHT22;2578;51.622;7.046;2023-02-10T17:07:41;6.50;20.50
5118;DHT22;2578;51.622;7.046;2023-02-10T17:10:11;6.70;12.50
5118;DHT22;2578;51.622;7.046;2023-02-10T17:12:37;6.80;20.10
5118;DHT22;2578;51.622;7.046;2023-02-10T17:15:03;6.90;19.20
5118;DHT22;2578;51.622;7.046;2023-02-10T17:17:29;7.10;16.20
5118;DHT22;2578;51.622;7.046;2023-02-10T17:19:55;7.00;8.10
5118;DHT22;2578;51.622;7.046;2023-02-10T17:22:23;7.10;14.80
5118;DHT22;2578;51.622;7.046;2023-02-10T17:24:48;6.90;17.10
5118;DHT22;2578;51.622;7.046;2023-02-10T17:27:14;6.80;21.30
5118;DHT22;2578;51.622;7.046;2023-02-10T17:29:39;6.70;36.30
5118;DHT22;2578;51.622;7.046;2023-02-10T17:32:05;6.50;25.00
5118;DHT22;2578;51.622;7.046;2023-02-10T17:34:32;6.50;38.80
5118;DHT22;2578;51.622;7.046;2023-02-10T17:37:00;6.50;37.30
5118;DHT22;2578;51.622;7.046;2023-02-10T17:39:25;6.40;29.70
5118;DHT22;2578;51.622;7.046;2023-02-10T17:41:52;6.50;54.10
5118;DHT22;2578;51.622;7.046;2023-02-10T17:44:18;6.50;57.20
5118;DHT22;2578;51.622;7.046;2023-02-10T17:46:45;6.60;46.20
5118;DHT22;2578;51.622;7.046;2023-02-10T17:49:14;6.40;45.70
5118;DHT22;2578;51.622;7.046;2023-02-10T17:51:41;6.40;51.60
5118;DHT22;2578;51.622;7.046;2023-02-10T17:54:07;6.40;56.50
5118;DHT22;2578;51.622;7.046;2023-02-10T17:56:33;6.50;55.50
5118;DHT22;2578;51.622;7.046;2023-02-10T17:59:01;6.50;44.10
5118;DHT22;2578;51.622;7.046;2023-02-10T18:01:30;6.60;55.70
5118;DHT22;2578;51.622;7.046;2023-02-10T18:03:59;6.60;48.40
5118;DHT22;2578;51.622;7.046;2023-02-10T18:06:26;6.60;60.10
5118;DHT22;2578;51.622;7.046;2023-02-10T18:08:54;6.70;55.00
5118;DHT22;2578;51.622;7.046;2023-02-10T18:11:20;6.70;64.70
5118;DHT22;2578;51.622;7.046;2023-02-10T18:13:46;6.70;71.60
5118;DHT22;2578;51.622;7.046;2023-02-10T18:16:13;6.80;76.90
5118;DHT22;2578;51.622;7.046;2023-02-10T18:18:44;6.80;60.40
5118;DHT22;2578;51.622;7.046;2023-02-10T18:21:18;6.80;95.30
5118;DHT22;2578;51.622;7.046;2023-02-10T18:23:45;6.80;81.10
5118;DHT22;2578;51.622;7.046;2023-02-10T18:26:12;6.80;82.20
5118;DHT22;2578;51.622;7.046;2023-02-10T18:28:37;6.90;62.50
5118;DHT22;2578;51.622;7.046;2023-02-10T18:31:04;6.90;74.80
5118;DHT22;2578;51.622;7.046;2023-02-10T18:33:30;4.90;76.10
5118;DHT22;2578;51.622;7.046;2023-02-10T18:35:57;6.80;86.80
5118;DHT22;2578;51.622;7.046;2023-02-10T18:38:23;6.80;70.40
5118;DHT22;2578;51.622;7.046;2023-02-10T18:40:49;6.80;78.80
5118;DHT22;2578;51.622;7.046;2023-02-10T18:43:21;6.80;99.90
5118;DHT22;2578;51.622;7.046;2023-02-10T18:45:48;6.80;87.30
5118;DHT22;2578;51.622;7.046;2023-02-10T18:48:14;6.70;88.10
5118;DHT22;2578;51.622;7.046;2023-02-10T18:50:40;6.70;86.80
5118;DHT22;2578;51.622;7.046;2023-02-10T18:53:08;6.70;93.00
5118;DHT22;2578;51.622;7.046;2023-02-10T18:55:33;6.80;94.50
5118;DHT22;2578;51.622;7.046;2023-02-10T18:57:59;6.80;92.40
5118;DHT22;2578;51.622;7.046;2023-02-10T19:00:28;6.80;91.70
5118;DHT22;2578;51.622;7.046;2023-02-10T19:02:54;6.80;98.10
5118;DHT22;2578;51.622;7.046;2023-02-10T19:05:20;6.90;94.50
5118;DHT22;2578;51.622;7.046;2023-02-10T19:07:45;6.90;99.90